sensor_id;sensor_type;location;lat;lon;timestamp;temperature;humidity
39779;DHT22;25454;49.878;8.618;2023-03-23T00:04:41;14.60;92.70
39779;DHT22;25454;49.878;8.618;2023-03-23T00:09:43;14.60;93.30
39779;DHT22;25454;49.878;8.618;2023-03-23T00:14:43;14.60;93.10
39779;DHT22;25454;49.878;8.618;2023-03-23T00:19:44;14.50;93.50
39779;DHT22;25454;49.878;8.618;2023-03-23T00:24:48;14.60;93.80
39779;DHT22;25454;49.878;8.618;2023-03-23T00:29:57;14.50;94.30
39779;DHT22;25454;49.878;8.618;2023-03-23T00:35:01;14.60;94.90
39779;DHT22;25454;49.878;8.618;2023-03-23T00:40:02;14.50;95.40
39779;DHT22;25454;49.878;8.618;2023-03-23T00:45:07;14.50;95.80
39779;DHT22;25454;49.878;8.618;2023-03-23T00:50:11;14.60;95.80
39779;DHT22;25454;49.878;8.618;2023-03-23T00:55:13;14.60;96.10
39779;DHT22;25454;49.878;8.618;2023-03-23T01:00:14;14.50;96.20
39779;DHT22;25454;49.878;8.618;2023-03-23T01:05:15;14.50;96.20
39779;DHT22;25454;49.878;8.618;2023-03-23T01:10:15;14.50;96.40
39779;DHT22;25454;49.878;8.618;2023-03-23T01:15:17;14.50;96.60
39779;DHT22;25454;49.878;8.618;2023-03-23T01:20:17;14.50;96.70
39779;DHT22;25454;49.878;8.618;2023-03-23T01:25:19;14.50;96.50
39779;DHT22;25454;49.878;8.618;2023-03-23T01:30:20;14.50;96.90
39779;DHT22;25454;49.878;8.618;2023-03-23T01:35:21;14.50;97.00
39779;DHT22;25454;49.878;8.618;2023-03-23T01:40:26;14.50;97.20
39779;DHT22;25454;49.878;8.618;2023-03-23T01:45:34;14.40;97.10
39779;DHT22;25454;49.878;8.618;2023-03-23T01:50:46;14.40;97.10
39779;DHT22;25454;49.878;8.618;2023-03-23T01:55:52;14.40;97.10
39779;DHT22;25454;49.878;8.618;2023-03-23T02:00:55;14.40;96.90
39779;DHT22;25454;49.878;8.618;2023-03-23T02:05:57;14.40;97.20
39779;DHT22;25454;49.878;8.618;2023-03-23T02:11:15;14.40;97.60
39779;DHT22;25454;49.878;8.618;2023-03-23T02:16:33;14.30;97.90
39779;DHT22;25454;49.878;8.618;2023-03-23T02:22:18;14.30;98.20
39779;DHT22;25454;49.878;8.618;2023-03-23T02:33:12;14.20;98.70
39779;DHT22;25454;49.878;8.618;2023-03-23T02:38:22;14.20;98.90
39779;DHT22;25454;49.878;8.618;2023-03-23T02:43:27;14.20;99.00
39779;DHT22;25454;49.878;8.618;2023-03-23T02:48:29;14.10;99.10
39779;DHT22;25454;49.878;8.618;2023-03-23T02:53:33;14.10;98.90
39779;DHT22;25454;49.878;8.618;2023-03-23T02:58:35;14.20;98.80
39779;DHT22;25454;49.878;8.618;2023-03-23T03:03:36;14.20;99.60
39779;DHT22;25454;49.878;8.618;2023-03-23T03:08:52;14.10;99.90
39779;DHT22;25454;49.878;8.618;2023-03-23T03:13:57;14.10;99.90
39779;DHT22;25454;49.878;8.618;2023-03-23T03:24:17;13.90;99.90
39779;DHT22;25454;49.878;8.618;2023-03-23T03:29:22;13.80;99.90
39779;DHT22;25454;49.878;8.618;2023-03-23T03:34:23;13.80;99.90
39779;DHT22;25454;49.878;8.618;2023-03-23T03:39:25;13.80;99.90
39779;DHT22;25454;49.878;8.618;2023-03-23T03:44:26;13.90;99.90
39779;DHT22;25454;49.878;8.618;2023-03-23T03:49:27;13.90;99.90
39779;DHT22;25454;49.878;8.618;2023-03-23T03:54:27;13.90;99.90
39779;DHT22;25454;49.878;8.618;2023-03-23T03:59:28;13.90;99.90
39779;DHT22;25454;49.878;8.618;2023-03-23T04:04:30;13.90;99.90
39779;DHT22;25454;49.878;8.618;2023-03-23T04:09:31;13.90;99.90
39779;DHT22;25454;49.878;8.618;2023-03-23T04:14:33;13.90;99.90
39779;DHT22;25454;49.878;8.618;2023-03-23T04:19:33;13.80;99.90
39779;DHT22;25454;49.878;8.618;2023-03-23T04:24:34;13.80;99.90
39779;DHT22;25454;49.878;8.618;2023-03-23T04:29:35;13.70;99.90
39779;DHT22;25454;49.878;8.618;2023-03-23T04:34:36;13.70;99.90
39779;DHT22;25454;49.878;8.618;2023-03-23T04:39:37;13.70;99.90
39779;DHT22;25454;49.878;8.618;2023-03-23T04:44:40;13.70;99.90
39779;DHT22;25454;49.878;8.618;2023-03-23T04:49:40;13.70;99.90
39779;DHT22;25454;49.878;8.618;2023-03-23T04:54:41;13.70;99.90
39779;DHT22;25454;49.878;8.618;2023-03-23T04:59:43;13.60;99.90
39779;DHT22;25454;49.878;8.618;2023-03-23T05:04:44;13.60;99.90
39779;DHT22;25454;49.878;8.618;2023-03-23T05:09:50;13.60;99.90
39779;DHT22;25454;49.878;8.618;2023-03-23T05:14:50;13.60;99.90
39779;DHT22;25454;49.878;8.618;2023-03-23T05:19:52;13.60;99.90
39779;DHT22;25454;49.878;8.618;2023-03-23T05:24:52;13.60;99.90
39779;DHT22;25454;49.878;8.618;2023-03-23T05:29:53;13.60;99.90
39779;DHT22;25454;49.878;8.618;2023-03-23T05:35:00;13.60;99.90
39779;DHT22;25454;49.878;8.618;2023-03-23T05:40:01;13.60;99.90
39779;DHT22;25454;49.878;8.618;2023-03-23T05:45:05;13.60;99.90
39779;DHT22;25454;49.878;8.618;2023-03-23T05:50:08;13.70;99.90
39779;DHT22;25454;49.878;8.618;2023-03-23T05:55:12;13.70;99.90
39779;DHT22;25454;49.878;8.618;2023-03-23T06:00:14;13.70;99.90
39779;DHT22;25454;49.878;8.618;2023-03-23T06:05:19;13.70;99.90
39779;DHT22;25454;49.878;8.618;2023-03-23T06:10:23;13.80;99.90
39779;DHT22;25454;49.878;8.618;2023-03-23T06:15:23;13.70;99.90
39779;DHT22;25454;49.878;8.618;2023-03-23T06:20:25;13.50;99.90
39779;DHT22;25454;49.878;8.618;2023-03-23T06:25:28;13.50;99.90
39779;DHT22;25454;49.878;8.618;2023-03-23T06:30:29;13.40;99.90
39779;DHT22;25454;49.878;8.618;2023-03-23T06:35:31;13.50;99.90
39779;DHT22;25454;49.878;8.618;2023-03-23T06:40:32;13.50;99.90
39779;DHT22;25454;49.878;8.618;2023-03-23T06:45:33;13.50;99.90
39779;DHT22;25454;49.878;8.618;2023-03-23T06:50:33;13.50;99.90
39779;DHT22;25454;49.878;8.618;2023-03-23T06:55:34;13.40;99.90
39779;DHT22;25454;49.878;8.618;2023-03-23T07:00:35;13.40;99.90
39779;DHT22;25454;49.878;8.618;2023-03-23T07:05:35;13.40;99.90
39779;DHT22;25454;49.878;8.618;2023-03-23T07:10:37;13.40;99.90
39779;DHT22;25454;49.878;8.618;2023-03-23T07:15:38;13.40;99.90
39779;DHT22;25454;49.878;8.618;2023-03-23T07:20:39;13.60;99.90
39779;DHT22;25454;49.878;8.618;2023-03-23T07:25:40;13.80;99.90
39779;DHT22;25454;49.878;8.618;2023-03-23T07:30:40;14.00;99.90
39779;DHT22;25454;49.878;8.618;2023-03-23T07:35:41;14.10;99.90
39779;DHT22;25454;49.878;8.618;2023-03-23T07:40:42;14.10;99.90
39779;DHT22;25454;49.878;8.618;2023-03-23T07:45:42;14.10;99.90
39779;DHT22;25454;49.878;8.618;2023-03-23T07:50:43;14.10;99.90
39779;DHT22;25454;49.878;8.618;2023-03-23T07:55:44;14.00;99.90
39779;DHT22;25454;49.878;8.618;2023-03-23T08:00:46;13.90;99.90
39779;DHT22;25454;49.878;8.618;2023-03-23T08:05:46;13.90;99.90
39779;DHT22;25454;49.878;8.618;2023-03-23T08:10:47;13.90;99.90
39779;DHT22;25454;49.878;8.618;2023-03-23T08:15:48;14.00;99.90
39779;DHT22;25454;49.878;8.618;2023-03-23T08:20:48;14.20;99.90
39779;DHT22;25454;49.878;8.618;2023-03-23T08:25:49;14.10;99.90
39779;DHT22;25454;49.878;8.618;2023-03-23T08:30:50;14.10;99.90
39779;DHT22;25454;49.878;8.618;2023-03-23T08:35:58;14.10;99.90
39779;DHT22;25454;49.878;8.618;2023-03-23T08:41:00;14.00;99.90
39779;DHT22;25454;49.878;8.618;2023-03-23T08:46:01;14.00;99.90
39779;DHT22;25454;49.878;8.618;2023-03-23T08:51:07;14.00;99.90
39779;DHT22;25454;49.878;8.618;2023-03-23T08:56:10;14.00;99.90
39779;DHT22;25454;49.878;8.618;2023-03-23T09:01:11;14.00;99.90
39779;DHT22;25454;49.878;8.618;2023-03-23T09:06:11;14.10;99.90
39779;DHT22;25454;49.878;8.618;2023-03-23T09:11:13;14.30;99.90
39779;DHT22;25454;49.878;8.618;2023-03-23T09:16:13;14.30;99.90
39779;DHT22;25454;49.878;8.618;2023-03-23T09:21:14;14.40;99.90
39779;DHT22;25454;49.878;8.618;2023-03-23T09:26:15;14.50;99.90
39779;DHT22;25454;49.878;8.618;2023-03-23T09:31:15;14.60;99.90
39779;DHT22;25454;49.878;8.618;2023-03-23T09:36:16;14.80;99.90
39779;DHT22;25454;49.878;8.618;2023-03-23T09:46:48;15.20;99.90
39779;DHT22;25454;49.878;8.618;2023-03-23T09:51:55;15.50;99.90
39779;DHT22;25454;49.878;8.618;2023-03-23T09:56:58;17.00;99.90
39779;DHT22;25454;49.878;8.618;2023-03-23T10:02:14;18.00;99.90
39779;DHT22;25454;49.878;8.618;2023-03-23T10:07:22;19.60;99.90
39779;DHT22;25454;49.878;8.618;2023-03-23T10:12:42;19.60;99.90
39779;DHT22;25454;49.878;8.618;2023-03-23T10:17:50;18.30;99.90
39779;DHT22;25454;49.878;8.618;2023-03-23T10:28:39;17.10;99.90
39779;DHT22;25454;49.878;8.618;2023-03-23T10:33:43;16.90;99.90
39779;DHT22;25454;49.878;8.618;2023-03-23T10:38:54;16.70;99.90
39779;DHT22;25454;49.878;8.618;2023-03-23T10:43:55;16.60;99.90
39779;DHT22;25454;49.878;8.618;2023-03-23T10:48:58;16.40;99.90
39779;DHT22;25454;49.878;8.618;2023-03-23T10:54:02;16.20;99.90
39779;DHT22;25454;49.878;8.618;2023-03-23T10:59:27;16.10;99.90
39779;DHT22;25454;49.878;8.618;2023-03-23T11:04:28;16.20;99.90
39779;DHT22;25454;49.878;8.618;2023-03-23T11:09:37;16.20;99.90
39779;DHT22;25454;49.878;8.618;2023-03-23T11:14:38;16.20;99.90
39779;DHT22;25454;49.878;8.618;2023-03-23T11:19:39;16.50;99.90
39779;DHT22;25454;49.878;8.618;2023-03-23T11:24:43;16.60;99.90
39779;DHT22;25454;49.878;8.618;2023-03-23T11:29:54;16.70;99.90
39779;DHT22;25454;49.878;8.618;2023-03-23T11:35:05;16.70;99.90
39779;DHT22;25454;49.878;8.618;2023-03-23T11:51:00;16.40;99.90
39779;DHT22;25454;49.878;8.618;2023-03-23T11:56:19;16.20;99.90
39779;DHT22;25454;49.878;8.618;2023-03-23T12:01:48;15.70;99.90
39779;DHT22;25454;49.878;8.618;2023-03-23T12:12:46;15.50;99.90
39779;DHT22;25454;49.878;8.618;2023-03-23T12:17:56;15.50;99.90
39779;DHT22;25454;49.878;8.618;2023-03-23T12:23:30;15.70;99.90
39779;DHT22;25454;49.878;8.618;2023-03-23T12:45:03;16.00;99.90
39779;DHT22;25454;49.878;8.618;2023-03-23T12:50:15;16.30;99.90
39779;DHT22;25454;49.878;8.618;2023-03-23T12:55:20;16.50;99.90
39779;DHT22;25454;49.878;8.618;2023-03-23T13:10:30;18.00;99.90
39779;DHT22;25454;49.878;8.618;2023-03-23T13:25:56;17.60;99.90
39779;DHT22;25454;49.878;8.618;2023-03-23T13:31:17;17.30;99.90
39779;DHT22;25454;49.878;8.618;2023-03-23T13:36:33;16.90;99.90
39779;DHT22;25454;49.878;8.618;2023-03-23T13:41:34;17.00;99.90
39779;DHT22;25454;49.878;8.618;2023-03-23T13:47:21;17.00;99.90
39779;DHT22;25454;49.878;8.618;2023-03-23T13:52:37;16.70;99.90
39779;DHT22;25454;49.878;8.618;2023-03-23T14:02:49;16.60;99.90
39779;DHT22;25454;49.878;8.618;2023-03-23T14:13:01;17.10;99.90
39779;DHT22;25454;49.878;8.618;2023-03-23T14:18:04;17.30;99.90
39779;DHT22;25454;49.878;8.618;2023-03-23T14:23:05;17.20;99.90
39779;DHT22;25454;49.878;8.618;2023-03-23T14:28:17;16.90;99.90
39779;DHT22;25454;49.878;8.618;2023-03-23T14:33:18;16.50;99.90
39779;DHT22;25454;49.878;8.618;2023-03-23T14:38:21;16.20;99.90
39779;DHT22;25454;49.878;8.618;2023-03-23T14:43:29;16.00;99.90
39779;DHT22;25454;49.878;8.618;2023-03-23T14:48:30;15.90;99.90
39779;DHT22;25454;49.878;8.618;2023-03-23T14:53:36;15.80;99.90
39779;DHT22;25454;49.878;8.618;2023-03-23T14:58:38;15.80;99.90
39779;DHT22;25454;49.878;8.618;2023-03-23T15:04:24;15.80;99.90
39779;DHT22;25454;49.878;8.618;2023-03-23T15:09:11;15.90;99.90
39779;DHT22;25454;49.878;8.618;2023-03-23T15:14:16;15.80;99.90
39779;DHT22;25454;49.878;8.618;2023-03-23T15:19:32;15.80;99.90
39779;DHT22;25454;49.878;8.618;2023-03-23T15:24:38;15.80;99.90
39779;DHT22;25454;49.878;8.618;2023-03-23T15:29:59;15.90;99.90
39779;DHT22;25454;49.878;8.618;2023-03-23T15:35:10;15.90;99.90
39779;DHT22;25454;49.878;8.618;2023-03-23T15:40:20;15.90;99.90
39779;DHT22;25454;49.878;8.618;2023-03-23T15:45:27;15.90;99.90
39779;DHT22;25454;49.878;8.618;2023-03-23T15:55:35;15.70;99.90
39779;DHT22;25454;49.878;8.618;2023-03-23T16:00:37;15.60;99.90
39779;DHT22;25454;49.878;8.618;2023-03-23T16:05:38;15.60;99.90
39779;DHT22;25454;49.878;8.618;2023-03-23T16:10:39;15.60;99.90
39779;DHT22;25454;49.878;8.618;2023-03-23T16:15:39;15.60;99.90
39779;DHT22;25454;49.878;8.618;2023-03-23T16:20:40;15.70;99.90
39779;DHT22;25454;49.878;8.618;2023-03-23T16:25:41;15.50;99.90
39779;DHT22;25454;49.878;8.618;2023-03-23T16:30:43;15.50;99.90
39779;DHT22;25454;49.878;8.618;2023-03-23T16:35:44;15.40;99.90
39779;DHT22;25454;49.878;8.618;2023-03-23T16:40:46;15.30;99.90
39779;DHT22;25454;49.878;8.618;2023-03-23T16:45:46;15.20;99.90
39779;DHT22;25454;49.878;8.618;2023-03-23T16:50:47;15.10;99.90
39779;DHT22;25454;49.878;8.618;2023-03-23T16:55:50;15.00;99.90
39779;DHT22;25454;49.878;8.618;2023-03-23T17:00:51;15.00;99.90
39779;DHT22;25454;49.878;8.618;2023-03-23T17:05:52;14.90;99.90
39779;DHT22;25454;49.878;8.618;2023-03-23T17:10:53;14.80;99.90
39779;DHT22;25454;49.878;8.618;2023-03-23T17:15:55;14.70;99.90
39779;DHT22;25454;49.878;8.618;2023-03-23T17:20:56;14.60;99.90
39779;DHT22;25454;49.878;8.618;2023-03-23T17:25:57;14.40;99.90
39779;DHT22;25454;49.878;8.618;2023-03-23T17:30:57;14.30;99.90
39779;DHT22;25454;49.878;8.618;2023-03-23T17:35:58;14.20;99.90
39779;DHT22;25454;49.878;8.618;2023-03-23T17:41:00;14.10;99.90
39779;DHT22;25454;49.878;8.618;2023-03-23T17:46:01;14.00;99.90
39779;DHT22;25454;49.878;8.618;2023-03-23T17:51:01;13.90;99.90
39779;DHT22;25454;49.878;8.618;2023-03-23T17:56:04;13.90;99.90
39779;DHT22;25454;49.878;8.618;2023-03-23T18:01:05;13.80;99.90
39779;DHT22;25454;49.878;8.618;2023-03-23T18:06:07;13.80;99.90
39779;DHT22;25454;49.878;8.618;2023-03-23T18:11:07;13.80;99.90
39779;DHT22;25454;49.878;8.618;2023-03-23T18:16:08;13.80;99.90
39779;DHT22;25454;49.878;8.618;2023-03-23T18:21:09;13.80;99.90
39779;DHT22;25454;49.878;8.618;2023-03-23T18:26:12;13.80;99.90
39779;DHT22;25454;49.878;8.618;2023-03-23T18:31:15;13.90;99.90
39779;DHT22;25454;49.878;8.618;2023-03-23T18:36:18;13.90;99.90
39779;DHT22;25454;49.878;8.618;2023-03-23T18:41:20;14.00;99.90
39779;DHT22;25454;49.878;8.618;2023-03-23T18:46:20;14.10;99.90
39779;DHT22;25454;49.878;8.618;2023-03-23T18:51:21;14.10;99.90
39779;DHT22;25454;49.878;8.618;2023-03-23T18:56:22;14.10;99.90
39779;DHT22;25454;49.878;8.618;2023-03-23T19:01:22;14.10;99.90
39779;DHT22;25454;49.878;8.618;2023-03-23T19:06:25;14.20;99.90
39779;DHT22;25454;49.878;8.618;2023-03-23T19:11:26;14.20;99.90
39779;DHT22;25454;49.878;8.618;2023-03-23T19:16:28;14.20;99.90
39779;DHT22;25454;49.878;8.618;2023-03-23T19:21:30;14.20;99.90
39779;DHT22;25454;49.878;8.618;2023-03-23T19:26:39;14.30;99.90
39779;DHT22;25454;49.878;8.618;2023-03-23T19:31:40;14.30;99.90
39779;DHT22;25454;49.878;8.618;2023-03-23T19:36:41;14.30;99.90
39779;DHT22;25454;49.878;8.618;2023-03-23T19:41:44;14.20;99.90
39779;DHT22;25454;49.878;8.618;2023-03-23T19:46:45;14.30;99.90
39779;DHT22;25454;49.878;8.618;2023-03-23T19:51:47;14.20;99.90
39779;DHT22;25454;49.878;8.618;2023-03-23T19:56:47;14.20;99.90
39779;DHT22;25454;49.878;8.618;2023-03-23T20:01:48;14.10;99.90
39779;DHT22;25454;49.878;8.618;2023-03-23T20:06:49;14.10;99.90
39779;DHT22;25454;49.878;8.618;2023-03-23T20:11:51;14.10;99.90
39779;DHT22;25454;49.878;8.618;2023-03-23T20:16:52;14.10;99.90
39779;DHT22;25454;49.878;8.618;2023-03-23T20:21:52;14.00;99.90
39779;DHT22;25454;49.878;8.618;2023-03-23T20:26:53;13.90;99.90
39779;DHT22;25454;49.878;8.618;2023-03-23T20:31:54;13.90;99.90
39779;DHT22;25454;49.878;8.618;2023-03-23T20:36:55;13.90;99.90
39779;DHT22;25454;49.878;8.618;2023-03-23T20:41:58;13.80;99.90
39779;DHT22;25454;49.878;8.618;2023-03-23T20:47:01;13.80;99.90
39779;DHT22;25454;49.878;8.618;2023-03-23T20:52:04;13.80;99.90
39779;DHT22;25454;49.878;8.618;2023-03-23T20:57:05;13.80;99.90
39779;DHT22;25454;49.878;8.618;2023-03-23T21:02:09;13.80;99.90
39779;DHT22;25454;49.878;8.618;2023-03-23T21:07:12;13.90;99.90
39779;DHT22;25454;49.878;8.618;2023-03-23T21:12:13;13.90;99.90
39779;DHT22;25454;49.878;8.618;2023-03-23T21:17:13;13.90;99.90
39779;DHT22;25454;49.878;8.618;2023-03-23T21:22:14;13.90;99.90
39779;DHT22;25454;49.878;8.618;2023-03-23T21:27:17;14.00;99.90
39779;DHT22;25454;49.878;8.618;2023-03-23T21:32:18;14.10;99.90
39779;DHT22;25454;49.878;8.618;2023-03-23T21:37:18;14.10;99.90
39779;DHT22;25454;49.878;8.618;2023-03-23T21:42:19;14.10;99.90
39779;DHT22;25454;49.878;8.618;2023-03-23T21:47:20;14.20;99.90
39779;DHT22;25454;49.878;8.618;2023-03-23T21:52:21;14.30;99.90
39779;DHT22;25454;49.878;8.618;2023-03-23T21:57:21;14.40;99.90
39779;DHT22;25454;49.878;8.618;2023-03-23T22:02:22;14.40;99.90
39779;DHT22;25454;49.878;8.618;2023-03-23T22:07:24;14.40;99.90
39779;DHT22;25454;49.878;8.618;2023-03-23T22:12:24;14.40;99.90
39779;DHT22;25454;49.878;8.618;2023-03-23T22:17:25;14.50;99.90
39779;DHT22;25454;49.878;8.618;2023-03-23T22:22:26;14.50;99.90
39779;DHT22;25454;49.878;8.618;2023-03-23T22:27:26;14.50;99.90
39779;DHT22;25454;49.878;8.618;2023-03-23T22:32:27;14.50;99.90
39779;DHT22;25454;49.878;8.618;2023-03-23T22:37:28;14.50;99.90
39779;DHT22;25454;49.878;8.618;2023-03-23T22:42:28;14.50;99.90
39779;DHT22;25454;49.878;8.618;2023-03-23T22:47:29;14.50;99.90
39779;DHT22;25454;49.878;8.618;2023-03-23T22:52:29;14.50;99.90
39779;DHT22;25454;49.878;8.618;2023-03-23T22:57:31;14.40;99.90
39779;DHT22;25454;49.878;8.618;2023-03-23T23:02:31;14.40;99.90
39779;DHT22;25454;49.878;8.618;2023-03-23T23:07:32;14.50;99.90
39779;DHT22;25454;49.878;8.618;2023-03-23T23:12:33;14.50;99.90
39779;DHT22;25454;49.878;8.618;2023-03-23T23:17:34;14.40;99.90
39779;DHT22;25454;49.878;8.618;2023-03-23T23:22:38;14.30;99.90
39779;DHT22;25454;49.878;8.618;2023-03-23T23:27:39;14.20;99.90
39779;DHT22;25454;49.878;8.618;2023-03-23T23:32:40;14.10;99.90
39779;DHT22;25454;49.878;8.618;2023-03-23T23:37:44;14.00;99.90
39779;DHT22;25454;49.878;8.618;2023-03-23T23:42:48;14.00;99.90
39779;DHT22;25454;49.878;8.618;2023-03-23T23:47:49;13.90;99.90
39779;DHT22;25454;49.878;8.618;2023-03-23T23:52:50;13.90;99.90
39779;DHT22;25454;49.878;8.618;2023-03-23T23:57:52;13.90;99.90
